createdAt,value
2022-11-25T00:01:07.649Z,12.52
2022-11-25T00:03:36.269Z,14.38
2022-11-25T00:06:14.421Z,11.80
2022-11-25T00:08:43.003Z,12.43
2022-11-25T00:11:11.631Z,8.38
2022-11-25T00:13:40.341Z,18.23
2022-11-25T00:16:11.474Z,12.70
2022-11-25T00:18:39.455Z,11.23
2022-11-25T00:21:08.574Z,12.40
2022-11-25T00:23:36.817Z,10.00
2022-11-25T00:26:09.099Z,15.95
2022-11-25T00:28:36.997Z,8.63
2022-11-25T00:31:12.045Z,13.50
2022-11-25T00:33:40.907Z,10.00
2022-11-25T00:36:16.214Z,14.75
2022-11-25T00:38:44.453Z,12.10
2022-11-25T00:41:30.046Z,13.88
2022-11-25T00:44:15.372Z,12.20
2022-11-25T00:46:44.530Z,11.80
2022-11-25T00:49:12.398Z,15.15
2022-11-25T00:51:40.215Z,15.93
2022-11-25T00:54:08.252Z,14.10
2022-11-25T00:56:36.003Z,14.00
2022-11-25T00:59:04.705Z,14.25
2022-11-25T01:01:32.620Z,10.95
2022-11-25T01:04:01.823Z,9.55
2022-11-25T01:06:29.606Z,8.45
2022-11-25T01:08:57.389Z,10.80
2022-11-25T01:11:25.561Z,9.52
2022-11-25T01:14:00.812Z,15.70
2022-11-25T01:16:29.143Z,15.50
2022-11-25T01:18:57.231Z,9.82
2022-11-25T01:21:28.251Z,13.55
2022-11-25T01:23:56.371Z,11.13
2022-11-25T01:26:25.670Z,9.80
2022-11-25T01:28:56.320Z,10.02
2022-11-25T01:31:26.076Z,15.68
2022-11-25T01:33:56.496Z,13.73
2022-11-25T01:36:26.409Z,16.20
2022-11-25T01:38:56.453Z,14.95
2022-11-25T01:41:26.577Z,11.00
2022-11-25T01:44:06.451Z,13.63
2022-11-25T01:46:43.862Z,9.25
2022-11-25T01:49:15.643Z,9.98
2022-11-25T01:51:49.706Z,14.15
2022-11-25T01:54:19.829Z,18.05
2022-11-25T01:56:51.656Z,11.93
2022-11-25T01:59:19.529Z,13.18
2022-11-25T02:01:47.578Z,15.85
2022-11-25T02:04:16.427Z,12.32
2022-11-25T02:06:53.533Z,8.75
2022-11-25T02:09:23.438Z,10.48
2022-11-25T02:11:53.330Z,9.95
2022-11-25T02:14:23.346Z,12.70
2022-11-25T02:16:51.136Z,18.10
2022-11-25T02:19:24.643Z,9.77
2022-11-25T02:22:00.907Z,12.80
2022-11-25T02:27:00.920Z,6.03
2022-11-25T02:29:29.174Z,7.78
2022-11-25T02:31:56.979Z,15.30
2022-11-25T02:34:24.842Z,9.93
2022-11-25T02:36:53.671Z,10.10
2022-11-25T02:39:22.276Z,9.48
2022-11-25T02:41:53.999Z,10.13
2022-11-25T02:44:23.167Z,11.38
2022-11-25T02:46:50.943Z,8.25
2022-11-25T02:49:18.669Z,14.52
2022-11-25T02:51:46.724Z,9.35
2022-11-25T02:54:16.590Z,18.10
2022-11-25T02:56:44.655Z,12.18
2022-11-25T02:59:13.608Z,13.57
2022-11-25T03:01:42.783Z,14.00
2022-11-25T03:04:10.681Z,10.38
2022-11-25T03:06:38.446Z,13.23
2022-11-25T03:09:13.498Z,12.20
2022-11-25T03:11:58.910Z,11.40
2022-11-25T03:14:26.645Z,10.25
2022-11-25T03:16:55.744Z,10.35
2022-11-25T03:19:23.629Z,10.98
2022-11-25T03:21:51.353Z,15.38
2022-11-25T03:24:19.086Z,11.18
2022-11-25T03:26:46.886Z,8.00
2022-11-25T03:29:14.621Z,12.05
2022-11-25T03:31:42.506Z,10.20
2022-11-25T03:34:11.678Z,8.80
2022-11-25T03:36:40.333Z,9.57
2022-11-25T03:39:08.093Z,9.38
2022-11-25T03:41:35.868Z,9.68
2022-11-25T03:44:03.609Z,14.43
2022-11-25T03:46:31.422Z,8.65
2022-11-25T03:48:59.210Z,6.40
2022-11-25T03:51:28.290Z,11.05
2022-11-25T03:53:56.074Z,7.68
2022-11-25T03:56:24.045Z,10.20
2022-11-25T03:58:51.854Z,7.63
2022-11-25T04:01:19.748Z,13.18
2022-11-25T04:03:47.613Z,14.15
2022-11-25T04:06:15.881Z,6.93
2022-11-25T04:08:45.103Z,13.20
2022-11-25T04:11:12.990Z,10.75
2022-11-25T04:13:39.805Z,11.43
2022-11-25T04:16:07.667Z,12.30
2022-11-25T04:18:35.418Z,9.32
2022-11-25T04:21:03.174Z,8.43
2022-11-25T04:23:30.935Z,11.52
2022-11-25T04:26:00.054Z,5.78
2022-11-25T04:28:27.809Z,8.38
2022-11-25T04:30:55.602Z,21.35
2022-11-25T04:33:23.504Z,15.90
2022-11-25T04:35:51.313Z,8.75
2022-11-25T04:38:19.100Z,10.13
2022-11-25T04:40:46.920Z,8.13
2022-11-25T04:43:16.015Z,9.30
2022-11-25T04:46:12.444Z,7.10
2022-11-25T04:48:32.204Z,7.97
2022-11-25T04:50:59.951Z,8.95
2022-11-25T04:53:27.758Z,14.35
2022-11-25T04:55:55.501Z,10.45
2022-11-25T04:58:38.573Z,10.43
2022-11-25T05:01:06.456Z,12.38
2022-11-25T05:03:34.226Z,11.05
2022-11-25T05:06:06.917Z,11.70
2022-11-25T05:08:34.724Z,8.63
2022-11-25T05:11:02.650Z,10.27
2022-11-25T05:13:31.750Z,9.77
2022-11-25T05:15:59.963Z,13.45
2022-11-25T05:18:27.814Z,10.05
2022-11-25T05:20:55.585Z,14.60
2022-11-25T05:23:23.344Z,9.43
2022-11-25T05:25:51.253Z,18.85
2022-11-25T05:28:18.982Z,21.10
2022-11-25T05:30:48.213Z,11.88
2022-11-25T05:33:16.096Z,10.52
2022-11-25T05:35:43.825Z,13.10
2022-11-25T05:38:11.554Z,9.88
2022-11-25T05:40:39.305Z,9.77
2022-11-25T05:43:07.042Z,14.55
2022-11-25T05:45:34.821Z,8.98
2022-11-25T05:48:04.033Z,6.50
2022-11-25T05:50:31.781Z,10.18
2022-11-25T05:52:59.518Z,11.38
2022-11-25T05:55:27.274Z,11.25
2022-11-25T05:57:55.015Z,10.60
2022-11-25T06:00:26.608Z,9.05
2022-11-25T06:02:54.951Z,15.00
2022-11-25T06:05:24.360Z,10.75
2022-11-25T06:07:52.324Z,12.13
2022-11-25T06:10:20.824Z,13.18
2022-11-25T06:12:49.165Z,10.45
2022-11-25T06:15:17.025Z,10.88
2022-11-25T06:17:44.797Z,11.27
2022-11-25T06:20:12.738Z,12.95
2022-11-25T06:22:41.834Z,18.17
2022-11-25T06:25:10.249Z,17.30
2022-11-25T06:28:04.603Z,18.00
2022-11-25T06:30:26.093Z,17.33
2022-11-25T06:32:55.818Z,20.35
2022-11-25T06:35:23.604Z,13.25
2022-11-25T06:37:52.758Z,10.80
2022-11-25T06:40:20.603Z,9.07
2022-11-25T06:42:48.471Z,9.95
2022-11-25T06:45:16.303Z,8.90
2022-11-25T06:47:44.222Z,15.20
2022-11-25T06:50:12.304Z,13.52
2022-11-25T06:52:40.096Z,6.60
2022-11-25T06:55:10.633Z,8.90
2022-11-25T06:57:38.353Z,14.35
2022-11-25T07:00:07.741Z,15.50
2022-11-25T07:02:41.718Z,15.77
2022-11-25T07:05:12.048Z,13.60
2022-11-25T07:07:39.848Z,9.13
2022-11-25T07:10:10.263Z,12.25
2022-11-25T07:12:38.154Z,8.23
2022-11-25T07:15:07.042Z,14.55
2022-11-25T07:17:35.083Z,14.48
2022-11-25T07:20:04.018Z,12.68
2022-11-25T07:22:31.971Z,10.48
2022-11-25T07:24:59.881Z,10.80
2022-11-25T07:27:29.152Z,10.63
2022-11-25T07:30:41.107Z,8.60
2022-11-25T07:32:44.738Z,12.93
2022-11-25T07:35:12.912Z,12.15
2022-11-25T07:37:40.690Z,8.07
2022-11-25T07:40:09.664Z,11.00
2022-11-25T07:42:38.843Z,11.63
2022-11-25T07:45:07.666Z,10.90
2022-11-25T07:47:35.561Z,19.38
2022-11-25T07:50:03.428Z,8.07
2022-11-25T07:52:31.185Z,7.40
2022-11-25T07:54:59.150Z,10.57
2022-11-25T07:57:26.883Z,17.17
2022-11-25T07:59:56.007Z,8.63
2022-11-25T08:02:24.009Z,7.50
2022-11-25T08:04:52.019Z,7.63
2022-11-25T08:07:19.866Z,8.52
2022-11-25T08:09:47.853Z,11.02
2022-11-25T08:12:15.761Z,8.23
2022-11-25T08:14:43.558Z,9.38
2022-11-25T08:17:12.817Z,9.85
2022-11-25T08:19:41.182Z,6.80
2022-11-25T08:22:08.947Z,9.23
2022-11-25T08:24:36.798Z,7.43
2022-11-25T08:27:05.018Z,9.13
2022-11-25T08:29:32.750Z,10.63
2022-11-25T08:32:00.523Z,10.45
2022-11-25T08:34:29.706Z,9.48
2022-11-25T08:36:57.509Z,10.68
2022-11-25T08:42:13.323Z,11.38
2022-11-25T08:44:41.102Z,9.10
2022-11-25T08:47:10.614Z,12.50
2022-11-25T08:49:41.582Z,8.15
2022-11-25T08:52:10.418Z,10.00
2022-11-25T08:54:38.515Z,7.05
2022-11-25T08:57:06.343Z,8.32
2022-11-25T08:59:34.468Z,12.20
2022-11-25T09:02:04.147Z,8.65
2022-11-25T09:04:34.111Z,11.07
2022-11-25T09:07:06.983Z,6.15
2022-11-25T09:09:37.122Z,10.93
2022-11-25T09:12:08.246Z,13.07
2022-11-25T09:14:38.142Z,11.10
2022-11-25T09:17:12.119Z,11.80
2022-11-25T09:19:42.148Z,6.72
2022-11-25T09:22:13.490Z,6.78
2022-11-25T09:24:44.349Z,7.43
2022-11-25T09:27:14.283Z,8.02
2022-11-25T09:29:43.918Z,9.45
2022-11-25T09:32:13.773Z,7.10
2022-11-25T09:34:43.456Z,10.20
2022-11-25T09:37:16.015Z,8.23
2022-11-25T09:39:45.774Z,8.85
2022-11-25T09:42:47.601Z,9.43
2022-11-25T09:45:39.174Z,9.98
2022-11-25T09:48:33.414Z,9.40
2022-11-25T09:51:14.946Z,15.43
2022-11-25T09:53:50.336Z,9.30
2022-11-25T09:56:28.207Z,5.38
2022-11-25T09:59:00.634Z,10.23
2022-11-25T10:01:31.668Z,8.45
2022-11-25T10:04:05.278Z,5.40
2022-11-25T10:06:36.767Z,7.18
2022-11-25T10:09:14.101Z,6.03
2022-11-25T10:11:50.991Z,8.95
2022-11-25T10:14:29.029Z,6.00
2022-11-25T10:17:03.414Z,7.80
2022-11-25T10:19:39.791Z,6.40
2022-11-25T10:22:20.460Z,7.47
2022-11-25T10:24:53.656Z,7.30
2022-11-25T10:27:26.602Z,8.77
2022-11-25T10:30:04.394Z,6.90
2022-11-25T10:32:40.901Z,6.05
2022-11-25T10:35:20.651Z,7.72
2022-11-25T10:37:49.477Z,9.18
2022-11-25T10:40:19.327Z,9.90
2022-11-25T10:42:47.108Z,8.80
2022-11-25T10:45:15.180Z,7.63
2022-11-25T10:48:05.352Z,8.82
2022-11-25T10:50:40.461Z,14.20
2022-11-25T10:53:15.859Z,7.88
2022-11-25T10:55:59.156Z,12.80
2022-11-25T10:58:31.166Z,8.00
2022-11-25T11:01:05.918Z,8.10
2022-11-25T11:03:33.931Z,13.10
2022-11-25T11:06:01.766Z,6.82
2022-11-25T11:08:38.015Z,8.35
2022-11-25T11:11:21.954Z,8.25
2022-11-25T11:13:51.470Z,13.65
2022-11-25T11:16:27.957Z,8.65
2022-11-25T11:18:56.639Z,8.88
2022-11-25T11:21:29.793Z,11.68
2022-11-25T11:23:59.595Z,9.73
2022-11-25T11:26:30.410Z,10.27
2022-11-25T11:29:01.436Z,6.63
2022-11-25T11:31:34.274Z,8.15
2022-11-25T11:34:23.644Z,12.43
2022-11-25T11:37:04.406Z,8.98
2022-11-25T11:39:51.390Z,10.35
2022-11-25T11:42:32.452Z,8.80
2022-11-25T11:45:11.277Z,7.18
2022-11-25T11:47:47.743Z,14.80
2022-11-25T11:50:26.370Z,9.57
2022-11-25T11:52:59.637Z,14.30
2022-11-25T11:56:26.969Z,15.25
2022-11-25T11:59:08.652Z,11.52
2022-11-25T12:01:49.581Z,13.43
2022-11-25T12:04:24.953Z,11.50
2022-11-25T12:07:03.585Z,7.55
2022-11-25T12:09:35.417Z,8.85
2022-11-25T12:12:07.357Z,13.13
2022-11-25T12:14:43.124Z,9.80
2022-11-25T12:17:17.899Z,9.45
2022-11-25T12:19:53.017Z,12.07
2022-11-25T12:22:25.766Z,7.47
2022-11-25T12:25:02.674Z,11.07
2022-11-25T12:27:34.604Z,14.50
2022-11-25T12:30:07.818Z,13.82
2022-11-25T12:32:57.854Z,15.80
2022-11-25T12:35:37.130Z,17.23
2022-11-25T12:38:15.913Z,14.43
2022-11-25T12:40:48.989Z,12.38
2022-11-25T12:43:27.309Z,12.57
2022-11-25T12:46:06.388Z,7.50
2022-11-25T12:48:42.718Z,12.05
2022-11-25T12:51:25.428Z,8.30
2022-11-25T12:54:03.574Z,20.98
2022-11-25T12:56:50.880Z,17.30
2022-11-25T12:59:40.805Z,11.63
2022-11-25T13:02:32.558Z,10.27
2022-11-25T13:05:39.667Z,13.38
2022-11-25T13:08:20.022Z,18.50
2022-11-25T13:11:06.188Z,13.90
2022-11-25T13:13:49.066Z,12.50
2022-11-25T13:16:19.076Z,10.98
2022-11-25T13:18:49.019Z,10.85
2022-11-25T13:21:18.416Z,10.77
2022-11-25T13:23:49.770Z,14.20
2022-11-25T13:26:50.540Z,27.42
2022-11-25T13:30:03.976Z,24.88
2022-11-25T13:32:42.984Z,9.02
2022-11-25T13:35:35.737Z,9.65
2022-11-25T13:38:27.123Z,18.27
2022-11-25T13:40:59.432Z,12.68
2022-11-25T13:43:27.520Z,8.45
2022-11-25T13:45:56.423Z,12.35
2022-11-25T13:48:27.358Z,10.82
2022-11-25T13:51:17.565Z,8.63
2022-11-25T13:53:52.765Z,13.75
2022-11-25T13:56:29.087Z,12.30
2022-11-25T13:59:36.039Z,10.18
2022-11-25T14:02:33.564Z,14.00
2022-11-25T14:05:16.642Z,12.27
2022-11-25T14:07:53.744Z,19.30
2022-11-25T14:10:39.103Z,19.60
2022-11-25T14:13:21.417Z,17.80
2022-11-25T14:16:06.670Z,20.48
2022-11-25T14:19:28.222Z,10.90
2022-11-25T14:21:55.682Z,12.60
2022-11-25T14:24:31.865Z,14.43
2022-11-25T14:27:00.833Z,17.42
2022-11-25T14:29:34.394Z,19.63
2022-11-25T14:32:08.233Z,14.75
2022-11-25T14:34:41.853Z,12.18
2022-11-25T14:37:15.717Z,10.27
2022-11-25T14:39:51.926Z,10.95
2022-11-25T14:42:22.720Z,11.90
2022-11-25T14:44:51.763Z,16.38
2022-11-25T14:47:24.067Z,14.27
2022-11-25T14:52:43.882Z,16.95
2022-11-25T14:55:13.286Z,12.98
2022-11-25T14:57:44.827Z,13.65
2022-11-25T15:00:16.231Z,13.15
2022-11-25T15:02:54.543Z,11.95
2022-11-25T15:05:25.998Z,17.27
2022-11-25T15:07:59.911Z,13.05
2022-11-25T15:10:45.243Z,22.65
2022-11-25T15:13:23.484Z,26.45
2022-11-25T15:15:52.226Z,24.85
2022-11-25T15:18:23.053Z,22.67
2022-11-25T15:20:56.575Z,24.92
2022-11-25T15:23:28.878Z,18.92
2022-11-25T15:25:58.482Z,24.02
2022-11-25T15:28:26.239Z,24.83
2022-11-25T15:30:58.706Z,18.05
2022-11-25T15:33:28.121Z,31.90
2022-11-25T15:35:56.338Z,28.23
2022-11-25T15:38:38.006Z,19.58
2022-11-25T15:41:08.217Z,17.15
2022-11-25T15:43:39.926Z,11.35
2022-11-25T15:46:08.862Z,17.45
2022-11-25T15:48:41.234Z,14.32
2022-11-25T15:51:32.139Z,16.50
2022-11-25T15:54:05.530Z,17.67
2022-11-25T15:56:38.557Z,14.35
2022-11-25T15:59:06.402Z,11.07
2022-11-25T16:01:39.720Z,14.30
2022-11-25T16:04:13.164Z,14.55
2022-11-25T16:06:54.443Z,15.00
2022-11-25T16:09:25.171Z,14.15
2022-11-25T16:11:54.282Z,15.18
2022-11-25T16:14:27.799Z,19.70
2022-11-25T16:17:03.267Z,13.70
2022-11-25T16:19:38.057Z,13.13
2022-11-25T16:22:07.252Z,14.60
2022-11-25T16:24:48.725Z,16.42
2022-11-25T16:27:21.859Z,15.93
2022-11-25T16:29:55.266Z,24.80
2022-11-25T16:32:24.514Z,27.58
2022-11-25T16:34:52.485Z,25.77
2022-11-25T16:37:20.225Z,62.20
2022-11-25T16:39:48.074Z,31.30
2022-11-25T16:42:21.186Z,34.45
2022-11-25T16:44:51.300Z,22.02
2022-11-25T16:47:21.946Z,21.90
2022-11-25T16:49:50.258Z,23.35
2022-11-25T16:52:18.096Z,22.48
2022-11-25T16:54:46.067Z,15.70
2022-11-25T16:57:19.082Z,18.05
2022-11-25T16:59:57.216Z,17.20
2022-11-25T17:02:26.555Z,16.42
2022-11-25T17:04:54.772Z,21.58
2022-11-25T17:07:38.410Z,17.58
2022-11-25T17:10:07.799Z,12.27
2022-11-25T17:12:36.734Z,10.75
2022-11-25T17:15:09.447Z,16.40
2022-11-25T17:17:37.400Z,33.25
2022-11-25T17:20:06.313Z,31.85
2022-11-25T17:22:39.370Z,14.82
2022-11-25T17:25:08.483Z,16.25
2022-11-25T17:27:36.599Z,15.98
2022-11-25T17:30:18.932Z,15.98
2022-11-25T17:32:47.517Z,17.63
2022-11-25T17:35:20.070Z,22.67
2022-11-25T17:37:48.689Z,25.02
2022-11-25T17:40:17.082Z,17.80
2022-11-25T17:42:48.283Z,17.15
2022-11-25T17:45:20.167Z,17.05
2022-11-25T17:47:48.272Z,19.33
2022-11-25T17:50:18.257Z,15.82
2022-11-25T17:52:46.066Z,17.10
2022-11-25T17:55:17.041Z,21.45
2022-11-25T17:57:45.063Z,22.20
2022-11-25T18:00:16.027Z,22.17
2022-11-25T18:02:45.288Z,22.85
2022-11-25T18:05:16.376Z,21.40
2022-11-25T18:07:44.861Z,20.80
2022-11-25T18:10:13.580Z,31.92
2022-11-25T18:12:42.150Z,22.85
2022-11-25T18:15:16.138Z,30.02
2022-11-25T18:17:45.627Z,27.20
2022-11-25T18:20:18.226Z,21.63
2022-11-25T18:22:46.490Z,18.48
2022-11-25T18:25:15.975Z,21.50
2022-11-25T18:27:44.808Z,22.88
2022-11-25T18:30:20.085Z,23.38
2022-11-25T18:32:49.779Z,27.88
2022-11-25T18:35:19.780Z,28.13
2022-11-25T18:37:48.219Z,22.90
2022-11-25T18:40:16.403Z,18.42
2022-11-25T18:42:46.102Z,14.20
2022-11-25T18:45:20.279Z,25.52
2022-11-25T18:47:50.024Z,21.30
2022-11-25T18:50:19.906Z,17.63
2022-11-25T18:52:48.478Z,15.02
2022-11-25T18:55:17.988Z,16.35
2022-11-25T18:57:48.600Z,35.13
2022-11-25T19:00:35.243Z,16.65
2022-11-25T19:05:34.423Z,21.67
2022-11-25T19:08:02.261Z,15.70
2022-11-25T19:10:34.829Z,14.18
2022-11-25T19:13:06.608Z,15.40
2022-11-25T19:15:37.234Z,27.65
2022-11-25T19:18:08.009Z,54.67
2022-11-25T19:20:36.009Z,21.65
2022-11-25T19:23:16.831Z,22.65
2022-11-25T19:25:45.448Z,26.23
2022-11-25T19:28:15.234Z,19.15
2022-11-25T19:30:43.686Z,21.52
2022-11-25T19:33:21.177Z,21.40
2022-11-25T19:35:49.252Z,17.48
2022-11-25T19:38:21.759Z,16.58
2022-11-25T19:40:49.950Z,20.77
2022-11-25T19:43:17.818Z,23.05
2022-11-25T19:45:45.967Z,18.23
2022-11-25T19:48:19.002Z,20.45
2022-11-25T19:50:49.084Z,16.65
2022-11-25T19:53:18.745Z,16.48
2022-11-25T19:55:46.837Z,20.67
2022-11-25T19:58:14.943Z,18.02
2022-11-25T20:00:44.703Z,26.40
2022-11-25T20:03:20.371Z,17.40
2022-11-25T20:05:48.840Z,25.92
2022-11-25T20:08:21.678Z,17.55
2022-11-25T20:10:49.600Z,19.58
2022-11-25T20:13:17.484Z,23.70
2022-11-25T20:15:46.423Z,16.23
2022-11-25T20:18:19.142Z,27.83
2022-11-25T20:20:49.468Z,16.52
2022-11-25T20:23:21.972Z,23.50
2022-11-25T20:25:50.639Z,15.55
2022-11-25T20:28:21.000Z,20.33
2022-11-25T20:30:49.764Z,12.43
2022-11-25T20:33:24.054Z,18.80
2022-11-25T20:35:55.851Z,15.88
2022-11-25T20:38:25.623Z,21.08
2022-11-25T20:40:56.675Z,17.83
2022-11-25T20:43:29.762Z,15.98
2022-11-25T20:45:59.060Z,24.42
2022-11-25T20:48:29.607Z,21.45
2022-11-25T20:51:01.092Z,19.23
2022-11-25T20:53:32.310Z,16.55
2022-11-25T20:56:00.236Z,20.45
2022-11-25T20:58:30.315Z,24.92
2022-11-25T21:00:58.851Z,19.95
2022-11-25T21:03:28.299Z,16.30
2022-11-25T21:05:57.881Z,18.98
2022-11-25T21:08:30.066Z,22.13
2022-11-25T21:10:59.285Z,17.92
2022-11-25T21:13:28.514Z,17.83
2022-11-25T21:15:57.583Z,15.43
2022-11-25T21:18:27.577Z,21.00
2022-11-25T21:20:57.519Z,25.55
2022-11-25T21:23:29.230Z,29.90
2022-11-25T21:26:01.024Z,19.02
2022-11-25T21:28:29.071Z,23.17
2022-11-25T21:30:57.007Z,16.00
2022-11-25T21:33:24.781Z,15.68
2022-11-25T21:35:53.928Z,19.02
2022-11-25T21:38:24.069Z,16.45
2022-11-25T21:40:53.834Z,15.73
2022-11-25T21:43:25.559Z,24.60
2022-11-25T21:45:59.446Z,22.02
2022-11-25T21:48:28.307Z,19.08
2022-11-25T21:50:57.410Z,25.60
2022-11-25T21:53:25.309Z,31.77
2022-11-25T21:55:53.634Z,28.83
2022-11-25T21:58:25.797Z,24.52
2022-11-25T22:00:56.404Z,31.58
2022-11-25T22:03:25.643Z,25.48
2022-11-25T22:05:53.493Z,18.13
2022-11-25T22:08:23.832Z,18.92
2022-11-25T22:10:53.866Z,19.00
2022-11-25T22:13:24.007Z,27.65
2022-11-25T22:15:56.516Z,28.63
2022-11-25T22:18:30.195Z,31.42
2022-11-25T22:20:58.230Z,31.02
2022-11-25T22:23:27.681Z,22.08
2022-11-25T22:25:56.638Z,29.58
2022-11-25T22:28:27.365Z,23.42
2022-11-25T22:30:57.158Z,24.35
2022-11-25T22:33:30.138Z,22.45
2022-11-25T22:35:58.413Z,25.88
2022-11-25T22:38:29.745Z,24.65
2022-11-25T22:41:01.406Z,18.60
2022-11-25T22:43:32.131Z,26.98
2022-11-25T22:46:00.514Z,25.23
2022-11-25T22:48:31.594Z,31.02
2022-11-25T22:50:59.553Z,18.15
2022-11-25T22:53:29.113Z,26.65
2022-11-25T22:55:58.131Z,20.42
2022-11-25T22:58:28.587Z,18.92
2022-11-25T23:00:57.562Z,25.20
2022-11-25T23:03:29.092Z,17.83
2022-11-25T23:05:57.491Z,22.98
2022-11-25T23:08:26.793Z,24.13
2022-11-25T23:10:56.660Z,22.58
2022-11-25T23:13:24.905Z,22.27
2022-11-25T23:15:54.575Z,22.08
2022-11-25T23:18:27.219Z,18.58
2022-11-25T23:20:54.986Z,28.02
2022-11-25T23:23:25.168Z,28.13
2022-11-25T23:25:52.953Z,31.52
2022-11-25T23:28:22.240Z,26.63
2022-11-25T23:30:51.887Z,29.67
2022-11-25T23:33:28.319Z,33.10
2022-11-25T23:35:56.749Z,32.15
2022-11-25T23:38:27.050Z,20.55
2022-11-25T23:40:54.879Z,24.08
2022-11-25T23:43:24.067Z,20.27
2022-11-25T23:45:54.415Z,20.88
2022-11-25T23:48:25.150Z,27.10
2022-11-25T23:50:54.967Z,24.65
2022-11-25T23:53:27.076Z,25.73
2022-11-25T23:55:54.879Z,21.70
2022-11-25T23:58:24.489Z,17.05
